sensor_id;sensor_type;location;lat;lon;timestamp;P1;durP1;ratioP1;P2;durP2;ratioP2
42108;SDS011;27765;51.228;7.626;2022-07-23T00:02:26;31.98;;;19.67;;
42108;SDS011;27765;51.228;7.626;2022-07-23T00:05:13;31.00;;;19.55;;
42108;SDS011;27765;51.228;7.626;2022-07-23T00:07:59;29.60;;;19.70;;
42108;SDS011;27765;51.228;7.626;2022-07-23T00:10:44;33.10;;;20.55;;
42108;SDS011;27765;51.228;7.626;2022-07-23T00:13:31;28.73;;;19.48;;
42108;SDS011;27765;51.228;7.626;2022-07-23T00:16:17;34.10;;;21.02;;
42108;SDS011;27765;51.228;7.626;2022-07-23T00:19:02;31.65;;;20.90;;
42108;SDS011;27765;51.228;7.626;2022-07-23T00:21:49;31.25;;;19.42;;
42108;SDS011;27765;51.228;7.626;2022-07-23T00:24:35;38.75;;;23.02;;
42108;SDS011;27765;51.228;7.626;2022-07-23T00:27:21;35.22;;;20.42;;
42108;SDS011;27765;51.228;7.626;2022-07-23T00:30:07;38.17;;;22.48;;
42108;SDS011;27765;51.228;7.626;2022-07-23T00:32:55;36.42;;;21.15;;
42108;SDS011;27765;51.228;7.626;2022-07-23T00:35:42;34.90;;;21.58;;
42108;SDS011;27765;51.228;7.626;2022-07-23T00:38:31;29.92;;;19.63;;
42108;SDS011;27765;51.228;7.626;2022-07-23T00:41:17;40.00;;;22.88;;
42108;SDS011;27765;51.228;7.626;2022-07-23T00:47:04;40.67;;;22.83;;
42108;SDS011;27765;51.228;7.626;2022-07-23T00:49:51;47.78;;;23.55;;
42108;SDS011;27765;51.228;7.626;2022-07-23T00:52:37;49.63;;;26.33;;
42108;SDS011;27765;51.228;7.626;2022-07-23T00:55:24;50.33;;;26.45;;
42108;SDS011;27765;51.228;7.626;2022-07-23T00:58:10;48.85;;;25.00;;
42108;SDS011;27765;51.228;7.626;2022-07-23T01:00:57;58.20;;;26.95;;
42108;SDS011;27765;51.228;7.626;2022-07-23T01:03:43;64.32;;;29.55;;
42108;SDS011;27765;51.228;7.626;2022-07-23T01:06:30;66.40;;;29.83;;
42108;SDS011;27765;51.228;7.626;2022-07-23T01:09:22;58.72;;;28.73;;
42108;SDS011;27765;51.228;7.626;2022-07-23T01:12:08;70.32;;;29.42;;
42108;SDS011;27765;51.228;7.626;2022-07-23T01:14:57;72.53;;;30.92;;
42108;SDS011;27765;51.228;7.626;2022-07-23T01:17:44;67.15;;;28.80;;
42108;SDS011;27765;51.228;7.626;2022-07-23T01:20:30;73.47;;;29.60;;
42108;SDS011;27765;51.228;7.626;2022-07-23T01:23:17;74.35;;;29.52;;
42108;SDS011;27765;51.228;7.626;2022-07-23T01:26:03;83.88;;;30.35;;
42108;SDS011;27765;51.228;7.626;2022-07-23T01:28:49;96.18;;;33.53;;
42108;SDS011;27765;51.228;7.626;2022-07-23T01:31:35;76.15;;;31.02;;
42108;SDS011;27765;51.228;7.626;2022-07-23T01:34:21;94.57;;;32.72;;
42108;SDS011;27765;51.228;7.626;2022-07-23T01:37:07;90.30;;;30.40;;
42108;SDS011;27765;51.228;7.626;2022-07-23T01:39:53;89.90;;;31.30;;
42108;SDS011;27765;51.228;7.626;2022-07-23T01:42:39;92.07;;;31.05;;
42108;SDS011;27765;51.228;7.626;2022-07-23T01:45:25;107.40;;;33.47;;
42108;SDS011;27765;51.228;7.626;2022-07-23T01:48:11;82.70;;;31.95;;
42108;SDS011;27765;51.228;7.626;2022-07-23T01:50:57;125.63;;;33.78;;
42108;SDS011;27765;51.228;7.626;2022-07-23T01:53:43;124.30;;;36.20;;
42108;SDS011;27765;51.228;7.626;2022-07-23T01:56:29;108.13;;;33.47;;
42108;SDS011;27765;51.228;7.626;2022-07-23T01:59:15;107.53;;;34.25;;
42108;SDS011;27765;51.228;7.626;2022-07-23T02:02:01;106.55;;;34.28;;
42108;SDS011;27765;51.228;7.626;2022-07-23T02:04:48;120.03;;;34.50;;
42108;SDS011;27765;51.228;7.626;2022-07-23T02:07:34;96.05;;;33.92;;
42108;SDS011;27765;51.228;7.626;2022-07-23T02:10:21;105.78;;;33.60;;
42108;SDS011;27765;51.228;7.626;2022-07-23T02:13:07;95.88;;;32.70;;
42108;SDS011;27765;51.228;7.626;2022-07-23T02:15:53;107.25;;;34.10;;
42108;SDS011;27765;51.228;7.626;2022-07-23T02:18:38;151.68;;;37.55;;
42108;SDS011;27765;51.228;7.626;2022-07-23T02:21:24;141.30;;;34.30;;
42108;SDS011;27765;51.228;7.626;2022-07-23T02:24:10;143.82;;;36.08;;
42108;SDS011;27765;51.228;7.626;2022-07-23T02:26:56;142.07;;;37.25;;
42108;SDS011;27765;51.228;7.626;2022-07-23T02:29:42;147.60;;;37.88;;
42108;SDS011;27765;51.228;7.626;2022-07-23T02:32:33;134.82;;;36.33;;
42108;SDS011;27765;51.228;7.626;2022-07-23T02:35:20;137.98;;;36.00;;
42108;SDS011;27765;51.228;7.626;2022-07-23T02:38:06;167.23;;;38.72;;
42108;SDS011;27765;51.228;7.626;2022-07-23T02:40:51;147.70;;;37.08;;
42108;SDS011;27765;51.228;7.626;2022-07-23T02:43:37;137.40;;;36.03;;
42108;SDS011;27765;51.228;7.626;2022-07-23T02:46:23;135.80;;;36.35;;
42108;SDS011;27765;51.228;7.626;2022-07-23T02:49:09;133.90;;;34.05;;
42108;SDS011;27765;51.228;7.626;2022-07-23T02:51:55;125.78;;;36.50;;
42108;SDS011;27765;51.228;7.626;2022-07-23T02:54:41;112.18;;;31.88;;
42108;SDS011;27765;51.228;7.626;2022-07-23T02:57:27;164.45;;;37.33;;
42108;SDS011;27765;51.228;7.626;2022-07-23T03:00:13;130.75;;;35.72;;
42108;SDS011;27765;51.228;7.626;2022-07-23T03:02:59;130.50;;;36.30;;
42108;SDS011;27765;51.228;7.626;2022-07-23T03:05:45;136.15;;;34.65;;
42108;SDS011;27765;51.228;7.626;2022-07-23T03:08:32;203.18;;;39.65;;
42108;SDS011;27765;51.228;7.626;2022-07-23T03:11:18;138.90;;;36.80;;
42108;SDS011;27765;51.228;7.626;2022-07-23T03:14:04;149.15;;;35.10;;
42108;SDS011;27765;51.228;7.626;2022-07-23T03:16:50;160.27;;;36.83;;
42108;SDS011;27765;51.228;7.626;2022-07-23T03:19:36;151.02;;;36.83;;
42108;SDS011;27765;51.228;7.626;2022-07-23T03:22:22;159.55;;;37.70;;
42108;SDS011;27765;51.228;7.626;2022-07-23T03:25:08;197.27;;;40.15;;
42108;SDS011;27765;51.228;7.626;2022-07-23T03:27:55;154.05;;;38.45;;
42108;SDS011;27765;51.228;7.626;2022-07-23T03:30:42;124.97;;;36.00;;
42108;SDS011;27765;51.228;7.626;2022-07-23T03:33:28;160.80;;;39.22;;
42108;SDS011;27765;51.228;7.626;2022-07-23T03:36:14;186.88;;;38.85;;
42108;SDS011;27765;51.228;7.626;2022-07-23T03:39:00;114.15;;;35.45;;
42108;SDS011;27765;51.228;7.626;2022-07-23T03:41:46;179.20;;;38.90;;
42108;SDS011;27765;51.228;7.626;2022-07-23T03:44:32;139.02;;;35.72;;
42108;SDS011;27765;51.228;7.626;2022-07-23T03:47:18;126.68;;;37.90;;
42108;SDS011;27765;51.228;7.626;2022-07-23T03:50:07;133.38;;;37.00;;
42108;SDS011;27765;51.228;7.626;2022-07-23T03:52:53;205.02;;;38.80;;
42108;SDS011;27765;51.228;7.626;2022-07-23T03:55:39;178.25;;;38.25;;
42108;SDS011;27765;51.228;7.626;2022-07-23T03:58:25;188.30;;;40.85;;
42108;SDS011;27765;51.228;7.626;2022-07-23T04:01:11;194.93;;;39.00;;
42108;SDS011;27765;51.228;7.626;2022-07-23T04:03:57;196.73;;;41.42;;
42108;SDS011;27765;51.228;7.626;2022-07-23T04:06:43;219.27;;;39.50;;
42108;SDS011;27765;51.228;7.626;2022-07-23T04:09:29;197.68;;;40.25;;
42108;SDS011;27765;51.228;7.626;2022-07-23T04:12:15;180.57;;;38.50;;
42108;SDS011;27765;51.228;7.626;2022-07-23T04:15:01;201.00;;;41.00;;
42108;SDS011;27765;51.228;7.626;2022-07-23T04:17:47;173.82;;;39.55;;
42108;SDS011;27765;51.228;7.626;2022-07-23T04:20:33;176.13;;;40.35;;
42108;SDS011;27765;51.228;7.626;2022-07-23T04:23:19;194.05;;;40.42;;
42108;SDS011;27765;51.228;7.626;2022-07-23T04:26:05;183.77;;;40.15;;
42108;SDS011;27765;51.228;7.626;2022-07-23T04:28:51;195.93;;;39.13;;
42108;SDS011;27765;51.228;7.626;2022-07-23T04:31:37;224.38;;;40.85;;
42108;SDS011;27765;51.228;7.626;2022-07-23T04:34:23;168.98;;;39.55;;
42108;SDS011;27765;51.228;7.626;2022-07-23T04:37:11;182.80;;;39.67;;
42108;SDS011;27765;51.228;7.626;2022-07-23T04:39:57;197.38;;;39.30;;
42108;SDS011;27765;51.228;7.626;2022-07-23T04:42:43;250.02;;;40.72;;
42108;SDS011;27765;51.228;7.626;2022-07-23T04:45:29;229.82;;;41.78;;
42108;SDS011;27765;51.228;7.626;2022-07-23T04:48:15;224.70;;;43.83;;
42108;SDS011;27765;51.228;7.626;2022-07-23T04:51:01;170.75;;;38.90;;
42108;SDS011;27765;51.228;7.626;2022-07-23T04:53:47;214.98;;;41.63;;
42108;SDS011;27765;51.228;7.626;2022-07-23T04:56:33;208.90;;;39.13;;
42108;SDS011;27765;51.228;7.626;2022-07-23T04:59:19;197.45;;;43.10;;
42108;SDS011;27765;51.228;7.626;2022-07-23T05:02:05;197.05;;;40.28;;
42108;SDS011;27765;51.228;7.626;2022-07-23T05:04:51;218.38;;;41.03;;
42108;SDS011;27765;51.228;7.626;2022-07-23T05:07:37;216.07;;;42.95;;
42108;SDS011;27765;51.228;7.626;2022-07-23T05:10:23;211.80;;;41.80;;
42108;SDS011;27765;51.228;7.626;2022-07-23T05:13:09;218.90;;;42.13;;
42108;SDS011;27765;51.228;7.626;2022-07-23T05:15:55;220.15;;;43.65;;
42108;SDS011;27765;51.228;7.626;2022-07-23T05:18:40;209.52;;;41.95;;
42108;SDS011;27765;51.228;7.626;2022-07-23T05:21:26;204.20;;;41.95;;
42108;SDS011;27765;51.228;7.626;2022-07-23T05:24:12;214.15;;;42.28;;
42108;SDS011;27765;51.228;7.626;2022-07-23T05:26:58;219.35;;;43.50;;
42108;SDS011;27765;51.228;7.626;2022-07-23T05:29:44;186.52;;;40.97;;
42108;SDS011;27765;51.228;7.626;2022-07-23T05:32:31;187.00;;;41.78;;
42108;SDS011;27765;51.228;7.626;2022-07-23T05:35:18;191.30;;;41.72;;
42108;SDS011;27765;51.228;7.626;2022-07-23T05:38:04;179.15;;;38.70;;
42108;SDS011;27765;51.228;7.626;2022-07-23T05:40:50;115.60;;;37.58;;
42108;SDS011;27765;51.228;7.626;2022-07-23T05:43:36;138.10;;;36.67;;
42108;SDS011;27765;51.228;7.626;2022-07-23T05:46:22;147.90;;;39.40;;
42108;SDS011;27765;51.228;7.626;2022-07-23T05:49:08;134.43;;;38.30;;
42108;SDS011;27765;51.228;7.626;2022-07-23T05:51:54;62.67;;;26.90;;
42108;SDS011;27765;51.228;7.626;2022-07-23T05:54:40;44.00;;;24.23;;
42108;SDS011;27765;51.228;7.626;2022-07-23T05:57:25;40.30;;;20.33;;
42108;SDS011;27765;51.228;7.626;2022-07-23T06:00:11;28.08;;;17.52;;
42108;SDS011;27765;51.228;7.626;2022-07-23T06:02:58;24.55;;;16.20;;
42108;SDS011;27765;51.228;7.626;2022-07-23T06:05:44;24.02;;;14.43;;
42108;SDS011;27765;51.228;7.626;2022-07-23T06:08:29;22.60;;;14.52;;
42108;SDS011;27765;51.228;7.626;2022-07-23T06:11:15;21.45;;;13.93;;
42108;SDS011;27765;51.228;7.626;2022-07-23T06:14:01;14.38;;;10.98;;
42108;SDS011;27765;51.228;7.626;2022-07-23T06:16:48;12.52;;;9.27;;
42108;SDS011;27765;51.228;7.626;2022-07-23T06:19:34;12.15;;;8.95;;
42108;SDS011;27765;51.228;7.626;2022-07-23T06:22:20;12.60;;;7.78;;
42108;SDS011;27765;51.228;7.626;2022-07-23T06:25:06;7.93;;;6.05;;
42108;SDS011;27765;51.228;7.626;2022-07-23T06:27:53;11.02;;;6.65;;
42108;SDS011;27765;51.228;7.626;2022-07-23T06:30:39;6.75;;;6.05;;
42108;SDS011;27765;51.228;7.626;2022-07-23T06:33:25;10.73;;;5.97;;
42108;SDS011;27765;51.228;7.626;2022-07-23T06:36:10;8.65;;;5.80;;
42108;SDS011;27765;51.228;7.626;2022-07-23T06:38:56;6.90;;;5.45;;
42108;SDS011;27765;51.228;7.626;2022-07-23T06:41:42;5.30;;;4.57;;
42108;SDS011;27765;51.228;7.626;2022-07-23T06:44:28;4.63;;;3.75;;
42108;SDS011;27765;51.228;7.626;2022-07-23T06:47:14;6.68;;;4.72;;
42108;SDS011;27765;51.228;7.626;2022-07-23T06:50:00;4.13;;;3.65;;
42108;SDS011;27765;51.228;7.626;2022-07-23T06:52:46;5.22;;;3.78;;
42108;SDS011;27765;51.228;7.626;2022-07-23T06:55:32;4.90;;;3.90;;
42108;SDS011;27765;51.228;7.626;2022-07-23T06:58:20;4.25;;;3.38;;
42108;SDS011;27765;51.228;7.626;2022-07-23T07:01:07;5.70;;;4.00;;
42108;SDS011;27765;51.228;7.626;2022-07-23T07:03:53;4.80;;;3.00;;
42108;SDS011;27765;51.228;7.626;2022-07-23T07:06:38;4.13;;;3.58;;
42108;SDS011;27765;51.228;7.626;2022-07-23T07:09:24;4.50;;;3.15;;
42108;SDS011;27765;51.228;7.626;2022-07-23T07:12:10;4.25;;;3.40;;
42108;SDS011;27765;51.228;7.626;2022-07-23T07:14:57;6.03;;;4.32;;
42108;SDS011;27765;51.228;7.626;2022-07-23T07:17:43;4.65;;;4.00;;
42108;SDS011;27765;51.228;7.626;2022-07-23T07:20:29;7.20;;;4.55;;
42108;SDS011;27765;51.228;7.626;2022-07-23T07:23:15;6.20;;;4.22;;
42108;SDS011;27765;51.228;7.626;2022-07-23T07:26:01;4.68;;;3.65;;
42108;SDS011;27765;51.228;7.626;2022-07-23T07:28:48;5.35;;;4.00;;
42108;SDS011;27765;51.228;7.626;2022-07-23T07:31:33;6.28;;;4.35;;
42108;SDS011;27765;51.228;7.626;2022-07-23T07:34:19;4.72;;;3.50;;
42108;SDS011;27765;51.228;7.626;2022-07-23T07:37:05;4.07;;;3.63;;
42108;SDS011;27765;51.228;7.626;2022-07-23T07:39:51;7.03;;;3.67;;
42108;SDS011;27765;51.228;7.626;2022-07-23T07:42:47;5.03;;;3.30;;
42108;SDS011;27765;51.228;7.626;2022-07-23T07:45:34;3.72;;;3.15;;
42108;SDS011;27765;51.228;7.626;2022-07-23T07:48:20;5.25;;;3.63;;
42108;SDS011;27765;51.228;7.626;2022-07-23T07:51:06;4.10;;;3.70;;
42108;SDS011;27765;51.228;7.626;2022-07-23T07:53:53;4.32;;;3.83;;
42108;SDS011;27765;51.228;7.626;2022-07-23T07:56:38;5.18;;;3.85;;
42108;SDS011;27765;51.228;7.626;2022-07-23T07:59:25;5.03;;;4.35;;
42108;SDS011;27765;51.228;7.626;2022-07-23T08:02:11;6.93;;;4.47;;
42108;SDS011;27765;51.228;7.626;2022-07-23T08:04:56;5.90;;;4.57;;
42108;SDS011;27765;51.228;7.626;2022-07-23T08:07:42;5.25;;;4.15;;
42108;SDS011;27765;51.228;7.626;2022-07-23T08:10:28;6.65;;;4.68;;
42108;SDS011;27765;51.228;7.626;2022-07-23T08:13:16;6.38;;;4.72;;
42108;SDS011;27765;51.228;7.626;2022-07-23T08:16:02;6.18;;;4.45;;
42108;SDS011;27765;51.228;7.626;2022-07-23T08:18:48;4.63;;;3.90;;
42108;SDS011;27765;51.228;7.626;2022-07-23T08:21:34;4.63;;;3.45;;
42108;SDS011;27765;51.228;7.626;2022-07-23T08:24:20;4.97;;;3.97;;
42108;SDS011;27765;51.228;7.626;2022-07-23T08:27:07;5.68;;;3.92;;
42108;SDS011;27765;51.228;7.626;2022-07-23T08:29:53;4.32;;;3.28;;
42108;SDS011;27765;51.228;7.626;2022-07-23T08:32:58;4.40;;;4.00;;
42108;SDS011;27765;51.228;7.626;2022-07-23T08:35:48;5.55;;;3.80;;
42108;SDS011;27765;51.228;7.626;2022-07-23T08:38:36;8.90;;;4.32;;
42108;SDS011;27765;51.228;7.626;2022-07-23T08:41:22;5.68;;;4.50;;
42108;SDS011;27765;51.228;7.626;2022-07-23T08:44:08;4.68;;;4.05;;
42108;SDS011;27765;51.228;7.626;2022-07-23T08:46:54;5.75;;;4.03;;
42108;SDS011;27765;51.228;7.626;2022-07-23T08:49:40;6.13;;;4.10;;
42108;SDS011;27765;51.228;7.626;2022-07-23T08:52:26;6.45;;;4.00;;
42108;SDS011;27765;51.228;7.626;2022-07-23T08:55:14;5.35;;;4.60;;
42108;SDS011;27765;51.228;7.626;2022-07-23T08:58:02;4.93;;;4.28;;
42108;SDS011;27765;51.228;7.626;2022-07-23T09:00:48;6.03;;;4.28;;
42108;SDS011;27765;51.228;7.626;2022-07-23T09:03:35;5.82;;;4.32;;
42108;SDS011;27765;51.228;7.626;2022-07-23T09:06:23;5.88;;;4.53;;
42108;SDS011;27765;51.228;7.626;2022-07-23T09:09:18;6.35;;;5.20;;
42108;SDS011;27765;51.228;7.626;2022-07-23T09:12:07;8.10;;;5.40;;
42108;SDS011;27765;51.228;7.626;2022-07-23T09:14:54;7.22;;;5.65;;
42108;SDS011;27765;51.228;7.626;2022-07-23T09:17:41;5.00;;;4.50;;
42108;SDS011;27765;51.228;7.626;2022-07-23T09:20:28;5.90;;;5.05;;
42108;SDS011;27765;51.228;7.626;2022-07-23T09:23:14;6.75;;;5.35;;
42108;SDS011;27765;51.228;7.626;2022-07-23T09:26:00;5.30;;;4.78;;
42108;SDS011;27765;51.228;7.626;2022-07-23T09:28:51;5.40;;;4.90;;
42108;SDS011;27765;51.228;7.626;2022-07-23T09:34:36;5.45;;;4.78;;
42108;SDS011;27765;51.228;7.626;2022-07-23T09:37:25;7.03;;;5.97;;
42108;SDS011;27765;51.228;7.626;2022-07-23T09:40:11;6.63;;;5.53;;
42108;SDS011;27765;51.228;7.626;2022-07-23T09:42:58;6.45;;;5.85;;
42108;SDS011;27765;51.228;7.626;2022-07-23T09:45:44;7.03;;;5.65;;
42108;SDS011;27765;51.228;7.626;2022-07-23T09:48:30;6.15;;;4.70;;
42108;SDS011;27765;51.228;7.626;2022-07-23T09:51:18;4.70;;;4.30;;
42108;SDS011;27765;51.228;7.626;2022-07-23T09:57:20;6.47;;;5.88;;
42108;SDS011;27765;51.228;7.626;2022-07-23T10:00:07;6.10;;;5.35;;
42108;SDS011;27765;51.228;7.626;2022-07-23T10:02:56;5.95;;;5.10;;
42108;SDS011;27765;51.228;7.626;2022-07-23T10:05:43;5.40;;;4.90;;
42108;SDS011;27765;51.228;7.626;2022-07-23T10:08:30;5.38;;;4.88;;
42108;SDS011;27765;51.228;7.626;2022-07-23T10:11:18;5.85;;;4.70;;
42108;SDS011;27765;51.228;7.626;2022-07-23T10:14:04;7.28;;;6.00;;
42108;SDS011;27765;51.228;7.626;2022-07-23T10:16:51;6.30;;;5.38;;
42108;SDS011;27765;51.228;7.626;2022-07-23T10:19:38;5.63;;;5.13;;
42108;SDS011;27765;51.228;7.626;2022-07-23T10:22:25;6.10;;;5.60;;
42108;SDS011;27765;51.228;7.626;2022-07-23T10:37:45;6.13;;;4.88;;
42108;SDS011;27765;51.228;7.626;2022-07-23T10:40:35;6.60;;;4.75;;
42108;SDS011;27765;51.228;7.626;2022-07-23T10:43:21;5.10;;;4.70;;
42108;SDS011;27765;51.228;7.626;2022-07-23T10:46:25;4.95;;;4.55;;
42108;SDS011;27765;51.228;7.626;2022-07-23T10:49:24;4.78;;;4.38;;
42108;SDS011;27765;51.228;7.626;2022-07-23T10:57:54;4.55;;;4.15;;
42108;SDS011;27765;51.228;7.626;2022-07-23T11:00:40;4.05;;;3.47;;
42108;SDS011;27765;51.228;7.626;2022-07-23T11:03:27;4.88;;;4.28;;
42108;SDS011;27765;51.228;7.626;2022-07-23T11:06:15;5.72;;;5.10;;
42108;SDS011;27765;51.228;7.626;2022-07-23T11:15:14;4.93;;;4.50;;
42108;SDS011;27765;51.228;7.626;2022-07-23T11:18:00;6.30;;;5.65;;
42108;SDS011;27765;51.228;7.626;2022-07-23T11:20:46;6.63;;;5.32;;
42108;SDS011;27765;51.228;7.626;2022-07-23T11:24:15;4.97;;;4.50;;
42108;SDS011;27765;51.228;7.626;2022-07-23T11:26:55;4.13;;;3.72;;
42108;SDS011;27765;51.228;7.626;2022-07-23T11:29:43;4.03;;;3.38;;
42108;SDS011;27765;51.228;7.626;2022-07-23T11:32:30;4.50;;;3.78;;
42108;SDS011;27765;51.228;7.626;2022-07-23T11:35:21;6.07;;;3.65;;
42108;SDS011;27765;51.228;7.626;2022-07-23T11:38:15;4.88;;;3.38;;
42108;SDS011;27765;51.228;7.626;2022-07-23T11:41:05;4.97;;;4.47;;
42108;SDS011;27765;51.228;7.626;2022-07-23T11:43:52;6.55;;;4.63;;
42108;SDS011;27765;51.228;7.626;2022-07-23T11:46:38;7.82;;;5.75;;
42108;SDS011;27765;51.228;7.626;2022-07-23T11:49:25;5.43;;;4.05;;
42108;SDS011;27765;51.228;7.626;2022-07-23T11:52:12;4.40;;;4.00;;
42108;SDS011;27765;51.228;7.626;2022-07-23T11:54:59;4.93;;;4.07;;
42108;SDS011;27765;51.228;7.626;2022-07-23T11:57:46;4.78;;;3.55;;
42108;SDS011;27765;51.228;7.626;2022-07-23T12:00:32;6.72;;;3.80;;
42108;SDS011;27765;51.228;7.626;2022-07-23T12:03:18;4.30;;;3.55;;
42108;SDS011;27765;51.228;7.626;2022-07-23T12:06:04;3.67;;;3.20;;
42108;SDS011;27765;51.228;7.626;2022-07-23T12:08:50;6.10;;;4.35;;
42108;SDS011;27765;51.228;7.626;2022-07-23T12:11:36;4.57;;;3.92;;
42108;SDS011;27765;51.228;7.626;2022-07-23T12:14:22;4.80;;;3.00;;
42108;SDS011;27765;51.228;7.626;2022-07-23T12:17:09;2.72;;;2.53;;
42108;SDS011;27765;51.228;7.626;2022-07-23T12:19:56;4.82;;;3.47;;
42108;SDS011;27765;51.228;7.626;2022-07-23T12:22:44;4.40;;;3.42;;
42108;SDS011;27765;51.228;7.626;2022-07-23T12:25:33;3.75;;;3.03;;
42108;SDS011;27765;51.228;7.626;2022-07-23T12:28:28;3.67;;;2.83;;
42108;SDS011;27765;51.228;7.626;2022-07-23T12:31:16;4.40;;;2.90;;
42108;SDS011;27765;51.228;7.626;2022-07-23T12:34:14;3.45;;;2.78;;
42108;SDS011;27765;51.228;7.626;2022-07-23T12:37:00;3.70;;;3.13;;
42108;SDS011;27765;51.228;7.626;2022-07-23T12:39:47;3.72;;;3.17;;
42108;SDS011;27765;51.228;7.626;2022-07-23T12:42:41;4.53;;;3.80;;
42108;SDS011;27765;51.228;7.626;2022-07-23T12:45:28;4.68;;;3.67;;
42108;SDS011;27765;51.228;7.626;2022-07-23T12:48:36;4.88;;;3.95;;
42108;SDS011;27765;51.228;7.626;2022-07-23T12:51:32;3.38;;;3.08;;
42108;SDS011;27765;51.228;7.626;2022-07-23T12:54:18;4.03;;;3.45;;
42108;SDS011;27765;51.228;7.626;2022-07-23T12:57:11;5.25;;;3.83;;
42108;SDS011;27765;51.228;7.626;2022-07-23T13:00:07;5.55;;;2.95;;
42108;SDS011;27765;51.228;7.626;2022-07-23T13:02:54;3.75;;;2.92;;
42108;SDS011;27765;51.228;7.626;2022-07-23T13:05:40;3.63;;;2.83;;
42108;SDS011;27765;51.228;7.626;2022-07-23T13:08:28;3.58;;;3.20;;
42108;SDS011;27765;51.228;7.626;2022-07-23T13:11:15;3.67;;;3.25;;
42108;SDS011;27765;51.228;7.626;2022-07-23T13:14:01;4.13;;;2.83;;
42108;SDS011;27765;51.228;7.626;2022-07-23T13:16:48;4.53;;;2.72;;
42108;SDS011;27765;51.228;7.626;2022-07-23T13:19:35;3.67;;;3.30;;
42108;SDS011;27765;51.228;7.626;2022-07-23T13:22:21;4.57;;;3.70;;
42108;SDS011;27765;51.228;7.626;2022-07-23T13:25:07;5.30;;;3.45;;
42108;SDS011;27765;51.228;7.626;2022-07-23T13:27:53;3.95;;;3.10;;
42108;SDS011;27765;51.228;7.626;2022-07-23T13:30:40;3.80;;;3.40;;
42108;SDS011;27765;51.228;7.626;2022-07-23T13:33:26;3.65;;;3.35;;
42108;SDS011;27765;51.228;7.626;2022-07-23T13:36:13;3.60;;;3.30;;
42108;SDS011;27765;51.228;7.626;2022-07-23T13:38:59;6.55;;;4.28;;
42108;SDS011;27765;51.228;7.626;2022-07-23T13:41:45;5.15;;;3.47;;
42108;SDS011;27765;51.228;7.626;2022-07-23T13:44:31;4.70;;;3.92;;
42108;SDS011;27765;51.228;7.626;2022-07-23T13:47:16;4.05;;;2.95;;
42108;SDS011;27765;51.228;7.626;2022-07-23T13:50:03;5.35;;;3.83;;
42108;SDS011;27765;51.228;7.626;2022-07-23T13:52:49;4.88;;;3.67;;
42108;SDS011;27765;51.228;7.626;2022-07-23T13:55:35;3.90;;;3.45;;
42108;SDS011;27765;51.228;7.626;2022-07-23T13:58:22;4.53;;;3.10;;
42108;SDS011;27765;51.228;7.626;2022-07-23T14:01:08;4.93;;;3.38;;
42108;SDS011;27765;51.228;7.626;2022-07-23T14:03:54;3.22;;;2.83;;
42108;SDS011;27765;51.228;7.626;2022-07-23T14:06:40;3.05;;;2.75;;
42108;SDS011;27765;51.228;7.626;2022-07-23T14:09:26;3.20;;;2.60;;
42108;SDS011;27765;51.228;7.626;2022-07-23T14:12:12;4.43;;;2.83;;
42108;SDS011;27765;51.228;7.626;2022-07-23T14:14:58;5.13;;;3.17;;
42108;SDS011;27765;51.228;7.626;2022-07-23T14:17:45;2.92;;;2.40;;
42108;SDS011;27765;51.228;7.626;2022-07-23T14:20:31;2.83;;;2.55;;
42108;SDS011;27765;51.228;7.626;2022-07-23T14:23:17;2.90;;;2.70;;
42108;SDS011;27765;51.228;7.626;2022-07-23T14:26:03;5.55;;;3.00;;
42108;SDS011;27765;51.228;7.626;2022-07-23T14:28:49;3.38;;;2.50;;
42108;SDS011;27765;51.228;7.626;2022-07-23T14:31:35;5.40;;;3.08;;
42108;SDS011;27765;51.228;7.626;2022-07-23T14:34:21;4.95;;;2.85;;
42108;SDS011;27765;51.228;7.626;2022-07-23T14:37:07;3.70;;;2.75;;
42108;SDS011;27765;51.228;7.626;2022-07-23T14:39:54;4.40;;;3.00;;
42108;SDS011;27765;51.228;7.626;2022-07-23T14:42:40;4.35;;;3.00;;
42108;SDS011;27765;51.228;7.626;2022-07-23T14:45:26;3.97;;;2.80;;
42108;SDS011;27765;51.228;7.626;2022-07-23T14:48:14;2.90;;;2.60;;
42108;SDS011;27765;51.228;7.626;2022-07-23T14:51:00;2.90;;;2.47;;
42108;SDS011;27765;51.228;7.626;2022-07-23T14:53:46;3.08;;;2.53;;
42108;SDS011;27765;51.228;7.626;2022-07-23T14:56:32;3.95;;;2.53;;
42108;SDS011;27765;51.228;7.626;2022-07-23T14:59:18;3.75;;;2.10;;
42108;SDS011;27765;51.228;7.626;2022-07-23T15:02:04;5.63;;;2.72;;
42108;SDS011;27765;51.228;7.626;2022-07-23T15:04:50;5.68;;;2.63;;
42108;SDS011;27765;51.228;7.626;2022-07-23T15:07:36;4.15;;;2.47;;
42108;SDS011;27765;51.228;7.626;2022-07-23T15:10:22;2.33;;;2.10;;
42108;SDS011;27765;51.228;7.626;2022-07-23T15:13:08;2.72;;;2.00;;
42108;SDS011;27765;51.228;7.626;2022-07-23T15:15:54;2.95;;;2.22;;
42108;SDS011;27765;51.228;7.626;2022-07-23T15:18:40;4.25;;;2.17;;
42108;SDS011;27765;51.228;7.626;2022-07-23T15:21:26;4.43;;;2.10;;
42108;SDS011;27765;51.228;7.626;2022-07-23T15:24:14;12.50;;;2.45;;
42108;SDS011;27765;51.228;7.626;2022-07-23T15:27:00;2.28;;;2.08;;
42108;SDS011;27765;51.228;7.626;2022-07-23T15:29:46;3.40;;;1.90;;
42108;SDS011;27765;51.228;7.626;2022-07-23T15:32:32;3.10;;;2.22;;
42108;SDS011;27765;51.228;7.626;2022-07-23T15:35:18;2.72;;;2.30;;
42108;SDS011;27765;51.228;7.626;2022-07-23T15:38:04;3.42;;;2.17;;
42108;SDS011;27765;51.228;7.626;2022-07-23T15:40:50;4.28;;;2.25;;
42108;SDS011;27765;51.228;7.626;2022-07-23T15:43:36;2.85;;;2.00;;
42108;SDS011;27765;51.228;7.626;2022-07-23T15:46:22;3.97;;;2.28;;
42108;SDS011;27765;51.228;7.626;2022-07-23T15:49:08;5.97;;;2.45;;
42108;SDS011;27765;51.228;7.626;2022-07-23T15:51:54;4.53;;;2.60;;
42108;SDS011;27765;51.228;7.626;2022-07-23T15:54:41;4.95;;;2.35;;
42108;SDS011;27765;51.228;7.626;2022-07-23T15:57:27;4.72;;;2.20;;
42108;SDS011;27765;51.228;7.626;2022-07-23T16:00:13;3.80;;;1.95;;
42108;SDS011;27765;51.228;7.626;2022-07-23T16:02:59;3.33;;;2.20;;
42108;SDS011;27765;51.228;7.626;2022-07-23T16:05:45;3.35;;;2.40;;
42108;SDS011;27765;51.228;7.626;2022-07-23T16:08:31;3.92;;;2.30;;
42108;SDS011;27765;51.228;7.626;2022-07-23T16:11:17;2.28;;;2.08;;
42108;SDS011;27765;51.228;7.626;2022-07-23T16:14:03;3.72;;;2.20;;
42108;SDS011;27765;51.228;7.626;2022-07-23T16:16:49;3.15;;;2.25;;
42108;SDS011;27765;51.228;7.626;2022-07-23T16:19:35;4.93;;;2.08;;
42108;SDS011;27765;51.228;7.626;2022-07-23T16:22:21;3.08;;;1.85;;
42108;SDS011;27765;51.228;7.626;2022-07-23T16:25:07;3.65;;;2.45;;
42108;SDS011;27765;51.228;7.626;2022-07-23T16:27:54;4.30;;;2.20;;
42108;SDS011;27765;51.228;7.626;2022-07-23T16:30:39;2.90;;;2.22;;
42108;SDS011;27765;51.228;7.626;2022-07-23T16:33:25;3.38;;;1.98;;
42108;SDS011;27765;51.228;7.626;2022-07-23T16:36:12;3.42;;;2.10;;
42108;SDS011;27765;51.228;7.626;2022-07-23T16:38:58;4.05;;;2.22;;
42108;SDS011;27765;51.228;7.626;2022-07-23T16:41:44;4.45;;;3.03;;
42108;SDS011;27765;51.228;7.626;2022-07-23T16:44:30;3.22;;;2.33;;
42108;SDS011;27765;51.228;7.626;2022-07-23T16:47:17;2.20;;;2.00;;
42108;SDS011;27765;51.228;7.626;2022-07-23T16:50:05;2.47;;;2.28;;
42108;SDS011;27765;51.228;7.626;2022-07-23T16:52:52;3.10;;;2.42;;
42108;SDS011;27765;51.228;7.626;2022-07-23T16:55:38;2.92;;;2.30;;
42108;SDS011;27765;51.228;7.626;2022-07-23T16:58:24;3.20;;;2.30;;
42108;SDS011;27765;51.228;7.626;2022-07-23T17:01:10;2.70;;;1.90;;
42108;SDS011;27765;51.228;7.626;2022-07-23T17:03:55;4.05;;;1.95;;